Time;durP1;ratioP1;P1;durP2;ratioP2;P2;SDS_P1;SDS_P2;PMS_P1;PMS_P2;Temp;Humidity;BMP_temperature;BMP_pressure;BME280_temperature;BME280_humidity;BME280_pressure;Samples;Min_cycle;Max_cycle;Signal;HPM_P1;HPM_P2
2022/07/22 00:02:01;;;;;;;10.60;5.00;;;;;;;22.41;47.90;99152.23;106167;1271;25305;-85
2022/07/22 00:04:31;;;;;;;9.70;5.10;;;;;;;22.48;47.95;99154.47;106366;1271;25330;-86
2022/07/22 00:07:03;;;;;;;10.30;5.80;;;;;;;22.52;48.12;99158.45;106513;1271;24395;-84
2022/07/22 00:09:43;;;;;;;12.50;5.40;;;;;;;22.52;48.12;99159.73;106422;1274;24269;-85
2022/07/22 00:12:18;;;;;;;13.00;6.00;;;;;;;22.51;48.32;99157.09;106412;1271;25230;-85
2022/07/22 00:15:08;;;;;;;;;;;;;;;;;;;;;
2022/07/22 00:18:05;;;;;;;14.60;6.50;;;;;;;22.42;48.77;99144.42;106196;1271;24243;-87
2022/07/22 00:25:04;;;;;;;14.00;6.70;;;;;;;22.27;49.93;99149.66;106024;1277;25366;-86
2022/07/22 00:27:49;;;;;;;12.90;6.80;;;;;;;22.19;50.12;99149.86;105650;1281;22700;-86
2022/07/22 00:30:50;;;;;;;15.10;6.60;;;;;;;22.10;50.58;99152.20;105989;1278;24195;-86
2022/07/22 00:34:15;;;;;;;11.10;6.10;;;;;;;22.06;50.65;99152.69;105849;1278;22569;-86
2022/07/22 00:37:06;;;;;;;13.10;6.10;;;;;;;22.07;50.83;99151.90;106019;1281;22618;-89
2022/07/22 00:40:00;;;;;;;13.60;6.10;;;;;;;22.06;51.06;99140.71;105989;1277;22600;-86
2022/07/22 00:42:52;;;;;;;13.10;6.10;;;;;;;22.01;51.28;99139.20;105813;1278;25539;-87
2022/07/22 00:46:02;;;;;;;;;;;;;;;;;;;;;
2022/07/22 00:48:52;;;;;;;12.50;6.70;;;;;;;21.92;51.63;99149.42;106024;1277;23904;-85
2022/07/22 00:52:10;;;;;;;11.10;5.80;;;;;;;21.88;51.77;99144.69;105919;1281;22803;-86
2022/07/22 00:55:31;;;;;;;;;;;;;;;;;;;;;
2022/07/22 01:14:38;;;;;;;9.30;5.10;;;;;;;22.70;50.61;99157.84;102886;1309;557880;-84
2022/07/22 01:17:22;;;;;;;10.90;5.60;;;;;;;22.84;50.65;99163.23;103298;1284;3287531;-87
2022/07/22 01:20:03;;;;;;;11.50;6.00;;;;;;;22.75;51.04;99168.20;105436;1283;22608;-86
2022/07/22 01:22:38;;;;;;;9.90;4.90;;;;;;;22.60;51.24;99172.21;105638;1283;25554;-85
2022/07/22 01:25:13;;;;;;;11.60;5.60;;;;;;;22.38;51.24;99178.88;105544;1283;22623;-86
2022/07/22 01:27:42;;;;;;;10.80;5.40;;;;;;;22.18;51.62;99177.75;105309;1283;26492;-88
2022/07/22 01:30:20;;;;;;;10.60;5.40;;;;;;;22.04;51.76;99178.37;105715;1283;24323;-89
2022/07/22 01:32:57;;;;;;;10.00;5.50;;;;;;;21.95;52.03;99171.73;105640;1283;22543;-87
2022/07/22 01:35:37;;;;;;;10.60;5.70;;;;;;;21.84;52.12;99168.00;105646;1283;22577;-88
2022/07/22 01:38:26;;;;;;;13.30;5.90;;;;;;;21.78;52.29;99172.23;105708;1283;25358;-88
2022/07/22 01:41:09;;;;;;;11.90;6.00;;;;;;;21.73;52.48;99178.66;105589;1284;25218;-87
2022/07/22 01:43:45;;;;;;;9.90;6.00;;;;;;;21.68;52.67;99175.61;105705;1284;23919;-87
2022/07/22 01:46:18;;;;;;;12.20;6.70;;;;;;;21.64;52.69;99170.88;105438;1284;25604;-86
2022/07/22 01:48:57;;;;;;;10.80;5.60;;;;;;;21.62;53.02;99168.61;105829;1283;25315;-85
2022/07/22 01:51:46;;;;;;;10.40;5.90;;;;;;;21.61;53.34;99165.76;105494;1283;25377;-85
2022/07/22 01:54:37;;;;;;;12.60;5.60;;;;;;;21.66;53.38;99171.88;105259;1284;23943;-84
2022/07/22 01:57:08;;;;;;;11.60;5.70;;;;;;;21.70;53.57;99175.84;105129;1286;24236;-84
2022/07/22 01:59:36;;;;;;;11.60;6.30;;;;;;;21.71;53.78;99169.10;105440;1284;25392;-84
2022/07/22 02:02:04;;;;;;;12.00;5.60;;;;;;;21.72;53.81;99169.91;105968;1277;25229;-84
2022/07/22 02:04:34;;;;;;;10.40;6.40;;;;;;;21.67;53.87;99179.72;105966;1277;26532;-84
2022/07/22 02:07:08;;;;;;;12.00;6.60;;;;;;;21.67;54.03;99193.21;105956;1276;25309;-84
2022/07/22 02:09:44;;;;;;;9.40;6.40;;;;;;;21.66;54.12;99197.48;105980;1276;22664;-84
2022/07/22 03:20:50;;;;;;;10.50;6.50;;;;;;;20.82;55.93;99217.23;106451;1273;24417;-84
2022/07/22 03:23:26;;;;;;;10.70;6.00;;;;;;;20.78;56.11;99216.45;106396;1274;24362;-87
2022/07/22 03:26:20;;;;;;;;;;;;;;;;;;;;;
2022/07/22 03:29:05;;;;;;;10.80;6.30;;;;;;;20.77;56.29;99215.69;106376;1274;25480;-85
2022/07/22 03:31:56;;;;;;;11.20;6.50;;;;;;;20.77;56.54;99207.00;106396;1273;22570;-85
2022/07/22 03:35:00;;;;;;;;;;;;;;;;;;;;;
2022/07/22 03:37:51;;;;;;;12.90;6.80;;;;;;;20.70;56.33;99204.09;106150;1273;22661;-87
2022/07/22 03:40:41;;;;;;;10.30;6.30;;;;;;;20.56;56.71;99201.67;106439;1273;26490;-85
2022/07/22 03:43:25;;;;;;;11.50;7.00;;;;;;;20.43;56.97;99199.58;106409;1274;22573;-87
2022/07/22 03:46:05;;;;;;;10.80;7.00;;;;;;;20.36;57.22;99194.83;106201;1273;22560;-85
2022/07/22 03:49:10;;;;;;;11.90;7.10;;;;;;;20.34;57.22;99193.98;106437;1274;23042;-84
2022/07/22 03:51:55;;;;;;;;;;;;;;;;;;;;;
2022/07/22 03:55:05;;;;;;;11.60;6.60;;;;;;;20.44;57.20;99197.91;106381;1273;25223;-84
2022/07/22 03:57:51;;;;;;;13.10;6.60;;;;;;;20.52;57.39;99192.67;106087;1273;25340;-84
2022/07/22 04:01:08;;;;;;;11.90;6.90;;;;;;;20.62;57.57;99191.61;106049;1273;22618;-82
2022/07/22 04:03:41;;;;;;;10.90;6.30;;;;;;;20.65;57.39;99186.11;105979;1273;23697;-85
2022/07/22 04:06:44;;;;;;;14.50;6.70;;;;;;;20.63;57.25;99181.18;106068;1275;22588;-85
2022/07/22 04:09:34;;;;;;;15.40;7.00;;;;;;;20.64;57.45;99177.28;106411;1274;22541;-84
2022/07/22 04:12:23;;;;;;;13.10;7.30;;;;;;;20.68;57.44;99182.52;106109;1274;24333;-80
2022/07/22 04:15:11;;;;;;;11.80;6.80;;;;;;;20.75;57.42;99177.27;105994;1274;22622;-87
2022/07/22 04:17:53;;;;;;;13.50;7.20;;;;;;;20.85;57.42;99176.39;106335;1273;22679;-84
2022/07/22 04:20:30;;;;;;;15.40;7.40;;;;;;;20.96;57.47;99177.40;106135;1274;22726;-85
2022/07/22 04:23:50;;;;;;;13.30;7.40;;;;;;;21.05;57.53;99167.91;106085;1274;24314;-85
2022/07/22 04:27:03;;;;;;;;;;;;;;;;;;;;;
2022/07/22 04:29:53;;;;;;;13.90;7.50;;;;;;;21.22;57.49;99163.03;106175;1273;22534;-85
2022/07/22 04:32:37;;;;;;;14.10;7.30;;;;;;;21.25;57.47;99159.12;106173;1275;22555;-84
2022/07/22 04:35:40;;;;;;;;;;;;;;;;;;;;;
2022/07/22 04:38:40;;;;;;;14.80;7.30;;;;;;;21.26;57.61;99157.99;106193;1273;24419;-84
2022/07/22 04:41:56;;;;;;;;;;;;;;;;;;;;;
2022/07/22 04:44:56;;;;;;;12.90;7.40;;;;;;;21.29;57.58;99149.20;105765;1281;22688;-87
2022/07/22 04:48:12;;;;;;;11.30;7.00;;;;;;;21.24;57.60;99155.73;105884;1280;23323;-84
2022/07/22 04:51:27;;;;;;;15.50;8.20;;;;;;;21.21;57.66;99160.21;105862;1280;24001;-85
2022/07/22 04:54:47;;;;;;;;;;;;;;;;;;;;;
2022/07/22 04:58:12;;;;;;;12.50;7.40;;;;;;;21.13;57.73;99156.32;105597;1283;24502;-84
2022/07/22 05:01:10;;;;;;;14.80;7.90;;;;;;;21.12;57.76;99150.48;105640;1283;22556;-85
2022/07/22 05:04:11;;;;;;;;;;;;;;;;;;;;;
2022/07/22 05:07:32;;;;;;;;;;;;;;;;;;;;;
2022/07/22 05:10:29;;;;;;;15.30;8.00;;;;;;;21.36;57.85;99152.77;105660;1284;22632;-86
2022/07/22 05:14:21;;;;;;;15.90;7.40;;;;;;;21.55;57.96;99148.91;105658;1284;24402;-84
2022/07/22 05:17:07;;;;;;;;;;;;;;;;;;;;;
2022/07/22 05:20:19;;;;;;;18.20;8.60;;;;;;;21.53;57.88;99150.18;105336;1284;25253;-82
2022/07/22 05:23:18;;;;;;;;;;;;;;;;;;;;;
2022/07/22 05:26:32;;;;;;;;;;;;;;;;;;;;;
2022/07/22 05:29:56;;;;;;;13.00;7.00;;;;;;;22.13;57.80;99150.59;105947;1281;22540;-85
2022/07/22 05:33:01;;;;;;;10.80;6.60;;;;;;;22.41;57.75;99152.92;106366;1272;22570;-87
2022/07/22 05:37:29;;;;;;;13.40;7.00;;;;;;;22.68;57.63;99152.75;106238;1271;25572;-84
2022/07/22 05:39:58;;;;;;;;;;;;;;;;;;;;;
2022/07/22 05:42:41;;;;;;;14.20;6.90;;;;;;;23.13;57.44;99144.73;105686;1280;22540;-86
2022/07/22 05:45:19;;;;;;;13.50;7.00;;;;;;;23.32;57.46;99147.23;105783;1281;22588;-83
2022/07/22 05:48:04;;;;;;;;;;;;;;;;;;;;;
2022/07/22 05:50:51;;;;;;;12.40;6.60;;;;;;;23.70;57.32;99147.81;105714;1281;23181;-87
2022/07/22 05:53:25;;;;;;;11.80;6.60;;;;;;;23.92;57.17;99145.94;105669;1281;24259;-84
2022/07/22 05:56:05;;;;;;;11.00;5.90;;;;;;;24.12;57.28;99144.05;105642;1277;22544;-85
2022/07/22 05:58:41;;;;;;;10.40;6.20;;;;;;;24.25;56.74;99148.59;105587;1281;25450;-85
2022/07/22 06:01:15;;;;;;;10.60;6.40;;;;;;;24.34;56.68;99146.71;105727;1281;22661;-85
2022/07/22 06:03:54;;;;;;;13.60;7.10;;;;;;;24.51;56.65;99145.34;105753;1281;22537;-86
2022/07/22 06:06:30;;;;;;;11.20;6.00;;;;;;;24.62;56.24;99143.80;105730;1281;22537;-84
2022/07/22 06:09:15;;;;;;;12.90;6.50;;;;;;;24.70;56.31;99149.02;105831;1281;25508;-83
2022/07/22 06:12:01;;;;;;;11.80;5.90;;;;;;;24.82;56.42;99147.13;105808;1278;22542;-88
2022/07/22 06:14:36;;;;;;;10.50;6.50;;;;;;;24.94;56.10;99145.90;105813;1280;25200;-83
2022/07/22 06:17:08;;;;;;;13.60;6.30;;;;;;;25.07;56.32;99142.52;106343;1271;22692;-84
2022/07/22 06:19:40;;;;;;;12.10;6.30;;;;;;;25.25;56.19;99144.56;106332;1272;25308;-85
2022/07/22 06:22:12;;;;;;;11.90;5.70;;;;;;;25.37;56.00;99152.25;106349;1275;22517;-87
2022/07/22 06:24:50;;;;;;;11.80;6.30;;;;;;;25.49;56.15;99150.46;106254;1274;24397;-83
2022/07/22 06:27:36;;;;;;;16.80;6.60;;;;;;;25.56;55.68;99149.85;106283;1274;22635;-82
2022/07/22 06:30:17;;;;;;;11.20;6.10;;;;;;;25.57;55.71;99151.96;106386;1274;24211;-85
2022/07/22 06:33:02;;;;;;;13.70;6.10;;;;;;;25.68;55.66;99149.44;106248;1274;24072;-85
2022/07/22 06:35:57;;;;;;;13.10;4.90;;;;;;;25.77;55.35;99149.70;106329;1274;24244;-84
2022/07/22 06:38:51;;;;;;;12.80;5.70;;;;;;;25.83;55.32;99151.27;106355;1274;25236;-84
2022/07/22 06:41:50;;;;;;;12.00;5.40;;;;;;;25.95;55.47;99159.39;106351;1274;22562;-84
2022/07/22 06:44:38;;;;;;;11.90;5.40;;;;;;;26.09;55.27;99156.77;106326;1274;22628;-85
2022/07/22 06:47:35;;;;;;;11.80;5.50;;;;;;;26.26;55.12;99159.27;106106;1274;22705;-86
2022/07/22 06:50:18;;;;;;;7.80;4.50;;;;;;;26.39;54.50;99159.80;106419;1274;22636;-85
2022/07/22 06:52:45;;;;;;;14.30;5.10;;;;;;;26.44;54.31;99158.09;106096;1274;25555;-84
2022/07/22 06:55:15;;;;;;;10.60;4.60;;;;;;;26.53;54.62;99153.33;106324;1274;23453;-85
2022/07/22 06:57:48;;;;;;;17.30;5.00;;;;;;;26.72;54.59;99151.34;106054;1274;25296;-85
2022/07/22 07:00:27;;;;;;;8.90;4.00;;;;;;;26.88;54.14;99151.80;106360;1274;22682;-84
2022/07/22 07:03:25;;;;;;;8.00;4.30;;;;;;;26.98;54.19;99150.09;106322;1274;24311;-87
2022/07/22 07:06:08;;;;;;;7.70;3.80;;;;;;;27.20;53.99;99147.93;106058;1274;24317;-88
2022/07/22 07:09:14;;;;;;;9.20;4.00;;;;;;;27.28;53.16;99143.56;106149;1274;22724;-85
2022/07/22 07:11:46;;;;;;;9.30;4.60;;;;;;;27.39;53.73;99146.69;105993;1276;24222;-86
2022/07/22 07:14:34;;;;;;;6.40;3.20;;;;;;;27.55;53.00;99150.46;106057;1274;22545;-85
2022/07/22 07:17:07;;;;;;;5.60;3.10;;;;;;;27.66;52.96;99150.09;106143;1274;22629;-91
2022/07/22 07:19:42;;;;;;;8.40;3.90;;;;;;;27.81;52.77;99150.45;106129;1277;22577;-90
2022/07/22 07:22:19;;;;;;;8.30;4.00;;;;;;;27.95;52.61;99151.09;106102;1275;25319;-85
2022/07/22 07:25:12;;;;;;;7.10;3.40;;;;;;;28.06;52.40;99152.64;106371;1273;22573;-89
2022/07/22 07:27:42;;;;;;;7.50;3.20;;;;;;;28.19;52.35;99152.38;106209;1273;22636;-84
2022/07/22 07:30:25;;;;;;;7.60;3.60;;;;;;;28.34;51.87;99153.05;106245;1274;22692;-88
2022/07/22 07:33:02;;;;;;;8.40;3.50;;;;;;;28.48;52.08;99151.67;106330;1274;22534;-89
2022/07/22 07:35:45;;;;;;;7.50;3.00;;;;;;;28.64;51.58;99152.51;106170;1273;22695;-85
2022/07/22 07:38:31;;;;;;;7.90;3.50;;;;;;;28.61;51.13;99160.23;106324;1273;25313;-86
2022/07/22 07:41:01;;;;;;;9.40;3.20;;;;;;;28.61;50.90;99161.24;106268;1273;25533;-87
2022/07/22 07:43:33;;;;;;;9.40;3.40;;;;;;;28.65;51.21;99163.36;105880;1274;24641;-87
2022/07/22 07:46:09;;;;;;;11.70;3.50;;;;;;;28.77;50.54;99166.59;105786;1275;22587;-86
2022/07/22 07:48:48;;;;;;;6.80;3.50;;;;;;;28.66;50.37;99172.16;106058;1273;24321;-86
2022/07/22 07:51:32;;;;;;;7.10;3.70;;;;;;;28.57;50.41;99170.02;106139;1273;22547;-89
2022/07/22 07:54:19;;;;;;;6.40;3.20;;;;;;;28.60;50.67;99170.13;106105;1273;22531;-88
2022/07/22 07:57:17;;;;;;;8.70;3.60;;;;;;;28.81;50.50;99165.91;106299;1274;24234;-90
2022/07/22 08:00:26;;;;;;;10.20;3.90;;;;;;;29.04;50.41;99160.27;106122;1274;24184;-88
2022/07/22 08:03:09;;;;;;;8.70;3.50;;;;;;;29.30;50.17;99164.03;106149;1273;25602;-86
2022/07/22 08:05:46;;;;;;;7.90;3.00;;;;;;;29.32;49.76;99162.80;106090;1273;24062;-87
2022/07/22 08:08:34;;;;;;;7.00;3.10;;;;;;;29.34;49.91;99165.64;105995;1274;23851;-86
2022/07/22 08:11:18;;;;;;;7.90;3.60;;;;;;;29.43;49.30;99164.13;106059;1273;24205;-87
2022/07/22 08:14:07;;;;;;;;;;;;;;;;;;;;;
2022/07/22 08:18:03;;;;;;;;;;;;;;;;;;;;;
2022/07/22 08:20:54;;;;;;;6.80;3.70;;;;;;;29.79;49.43;99159.44;105687;1279;22663;-87
2022/07/22 08:24:10;;;;;;;;;;;;;;;;;;;;;
2022/07/22 08:27:41;;;;;;;8.10;4.20;;;;;;;30.05;49.22;99158.27;105586;1280;22566;-90
2022/07/22 08:30:43;;;;;;;9.30;4.10;;;;;;;30.36;49.09;99164.45;105854;1281;22626;-93
2022/07/22 08:33:21;;;;;;;9.00;4.10;;;;;;;30.31;47.57;99165.98;105938;1281;25424;-91
2022/07/22 08:37:34;;;;;;;8.60;4.20;;;;;;;30.06;47.65;99165.21;105626;1280;25249;-90
2022/07/22 08:39:58;;;;;;;11.60;4.60;;;;;;;29.94;47.84;99166.48;104387;1294;24252;-87
2022/07/22 08:43:15;;;;;;;;;;;;;;;;;;;;;
2022/07/22 08:46:44;;;;;;;10.30;4.30;;;;;;;30.05;47.88;99164.25;104222;1294;23082;-88
2022/07/22 08:50:41;;;;;;;9.20;4.00;;;;;;;30.26;47.62;99167.94;104592;1293;25354;-91
2022/07/22 08:54:02;;;;;;;;;;;;;;;;;;;;;
2022/07/22 08:57:20;;;;;;;7.90;4.30;;;;;;;30.49;47.34;99170.55;103702;1300;24250;-91
2022/07/22 09:00:04;;;;;;;9.90;4.10;;;;;;;30.86;47.56;99167.66;104502;1300;24235;-89
2022/07/22 09:03:21;;;;;;;;;;;;;;;;;;;;;
2022/07/22 09:06:17;;;;;;;8.40;4.50;;;;;;;31.02;46.41;99166.05;104593;1297;26502;-91
2022/07/22 09:09:19;;;;;;;8.60;4.00;;;;;;;31.16;46.32;99165.10;104219;1297;25217;-88
2022/07/22 09:12:27;;;;;;;6.90;3.80;;;;;;;30.99;45.83;99164.10;103951;1297;25424;-89
2022/07/22 09:16:10;;;;;;;9.10;3.50;;;;;;;30.18;45.82;99160.40;103828;1291;22792;-88
2022/07/22 09:19:14;;;;;;;8.20;4.40;;;;;;;30.00;46.07;99160.59;104853;1287;22653;-87
2022/07/22 09:22:10;;;;;;;8.30;3.90;;;;;;;29.90;45.99;99165.77;104867;1288;22601;-87
2022/07/22 09:25:31;;;;;;;9.20;4.20;;;;;;;29.70;46.10;99161.59;104924;1288;23329;-88
2022/07/22 09:28:26;;;;;;;9.50;4.50;;;;;;;29.52;45.64;99160.49;105126;1287;22563;-93
2022/07/22 09:31:34;;;;;;;8.40;4.20;;;;;;;29.48;45.69;99153.27;105646;1280;22569;-90
2022/07/22 09:34:31;;;;;;;9.50;4.50;;;;;;;29.34;46.15;99155.09;106143;1275;22620;-89
2022/07/22 09:37:02;;;;;;;8.50;4.10;;;;;;;29.63;45.89;99152.91;106244;1274;25354;-90
2022/07/22 09:39:35;;;;;;;8.80;4.20;;;;;;;29.84;45.48;99152.64;106054;1274;24264;-87
2022/07/22 09:42:07;;;;;;;8.80;4.10;;;;;;;30.11;45.64;99148.77;106097;1273;23999;-93
2022/07/22 09:44:42;;;;;;;9.60;4.00;;;;;;;30.46;45.35;99147.06;106212;1274;22547;-90
2022/07/22 09:47:37;;;;;;;6.60;3.80;;;;;;;30.97;45.28;99147.16;106261;1274;24385;-89
2022/07/22 09:50:38;;;;;;;7.40;4.00;;;;;;;31.40;45.04;99144.45;106996;1273;22595;-90
2022/07/22 09:53:41;;;;;;;10.30;4.50;;;;;;;31.58;45.01;99138.10;106737;1273;22644;-92
2022/07/22 09:56:23;;;;;;;9.10;4.60;;;;;;;32.03;45.16;99136.66;106029;1275;22567;-91
2022/07/22 09:59:06;;;;;;;7.80;4.10;;;;;;;32.47;45.34;99139.86;106521;1273;24501;-92
2022/07/22 10:01:58;;;;;;;7.30;4.10;;;;;;;32.79;44.51;99138.61;106346;1274;22518;-90
2022/07/22 10:04:36;;;;;;;13.00;4.10;;;;;;;32.84;44.06;99133.43;107383;1273;22532;-91
2022/07/22 10:07:14;;;;;;;8.90;4.20;;;;;;;33.06;43.77;99129.41;106564;1273;25358;-91
2022/07/22 10:10:02;;;;;;;8.70;4.20;;;;;;;33.10;43.03;99123.09;106678;1274;22838;-89
2022/07/22 10:13:06;;;;;;;;;;;;;;;;;;;;;
2022/07/22 10:15:38;;;;;;;9.20;3.80;;;;;;;32.15;42.81;99129.98;106110;1274;22731;-88
2022/07/22 10:18:13;;;;;;;10.10;4.10;;;;;;;31.48;42.70;99131.48;106004;1273;24722;-90
2022/07/22 10:20:48;;;;;;;13.70;4.60;;;;;;;31.02;43.25;99126.77;106656;1273;23976;-92
2022/07/22 10:23:15;;;;;;;10.50;5.40;;;;;;;30.98;43.67;99125.64;106978;1273;24346;-91
2022/07/22 10:26:00;;;;;;;9.80;4.70;;;;;;;31.45;43.81;99121.38;107053;1273;22825;-90
2022/07/22 10:28:35;;;;;;;7.00;4.00;;;;;;;32.07;43.92;99114.59;106291;1273;22707;-91
2022/07/22 10:31:19;;;;;;;9.90;4.20;;;;;;;32.56;43.25;99114.45;107401;1274;25353;-88
2022/07/22 10:33:58;;;;;;;7.70;4.10;;;;;;;32.85;42.94;99108.39;106430;1274;24215;-90
2022/07/22 10:36:50;;;;;;;8.10;4.50;;;;;;;33.16;42.97;99104.58;106687;1273;22684;-90
2022/07/22 10:39:31;;;;;;;14.00;4.70;;;;;;;33.43;42.99;99106.95;107158;1271;23045;-90
2022/07/22 10:41:58;;;;;;;9.30;4.10;;;;;;;33.53;42.30;99099.48;107158;1273;22552;-91
2022/07/22 10:44:56;;;;;;;7.70;3.80;;;;;;;33.41;41.86;99103.54;107039;1273;22684;-89
2022/07/22 10:48:12;;;;;;;7.10;3.60;;;;;;;32.92;40.87;99111.31;106383;1273;22558;-88
2022/07/22 10:51:06;;;;;;;9.10;4.20;;;;;;;31.96;40.91;99107.38;105710;1280;22556;-90
2022/07/22 10:53:47;;;;;;;7.60;3.80;;;;;;;31.53;41.47;99107.64;105907;1280;26613;-87
2022/07/22 10:56:38;;;;;;;8.30;4.20;;;;;;;31.50;41.36;99105.70;105812;1280;22594;-92
2022/07/22 10:59:24;;;;;;;7.90;3.80;;;;;;;31.24;41.44;99110.98;106126;1280;24212;-89
2022/07/22 11:02:02;;;;;;;9.90;4.00;;;;;;;30.88;41.11;99107.76;105892;1280;22550;-87
2022/07/22 11:04:51;;;;;;;9.20;3.90;;;;;;;30.55;41.20;99110.33;105575;1280;22570;-88
2022/07/22 11:07:24;;;;;;;8.10;3.70;;;;;;;30.49;41.15;99107.80;106021;1280;24502;-88
2022/07/22 11:10:32;;;;;;;7.80;4.20;;;;;;;30.68;40.91;99099.17;105973;1280;25447;-90
2022/07/22 11:13:37;;;;;;;8.40;4.00;;;;;;;31.20;41.56;99096.20;105638;1282;23437;-89
2022/07/22 11:17:23;;;;;;;6.80;4.10;;;;;;;31.61;41.13;99093.81;106095;1279;23939;-89
2022/07/22 11:19:47;;;;;;;7.60;3.90;;;;;;;31.53;41.32;99091.84;105707;1280;26726;-89
2022/07/22 11:22:41;;;;;;;8.30;4.10;;;;;;;31.35;40.94;99086.61;106555;1273;26482;-90
2022/07/22 11:25:17;;;;;;;10.90;4.20;;;;;;;31.27;41.20;99086.40;107154;1273;24279;-91
2022/07/22 11:27:57;;;;;;;8.40;4.10;;;;;;;31.38;41.46;99088.89;107054;1273;22660;-91
2022/07/22 11:30:31;;;;;;;7.80;3.80;;;;;;;31.62;41.35;99093.34;106678;1273;22633;-87
2022/07/22 11:33:27;;;;;;;9.40;4.30;;;;;;;31.72;41.10;99081.89;107158;1273;22611;-91
2022/07/22 11:36:06;;;;;;;8.70;3.80;;;;;;;31.72;41.23;99080.40;106843;1273;24284;-89
2022/07/22 11:38:55;;;;;;;7.50;4.20;;;;;;;31.79;41.23;99079.06;106540;1273;22554;-90
2022/07/22 11:41:30;;;;;;;8.50;4.60;;;;;;;32.23;41.61;99080.46;107061;1273;22557;-90
2022/07/22 11:44:15;;;;;;;7.50;3.90;;;;;;;32.52;40.78;99083.61;107736;1273;22748;-89
2022/07/22 11:46:54;;;;;;;10.90;4.00;;;;;;;32.85;40.48;99076.09;107360;1273;22524;-92
2022/07/22 11:49:37;;;;;;;12.00;4.30;;;;;;;33.15;40.66;99081.61;107354;1273;22745;-91
2022/07/22 11:52:13;;;;;;;7.70;4.20;;;;;;;33.05;40.53;99084.42;107151;1273;22541;-89
2022/07/22 11:54:52;;;;;;;9.90;4.40;;;;;;;32.88;40.56;99084.88;106654;1273;26759;-91
2022/07/22 11:57:47;;;;;;;11.40;4.70;;;;;;;32.79;40.66;99078.42;106803;1273;22553;-89
2022/07/22 12:00:30;;;;;;;12.20;4.80;;;;;;;32.73;40.84;99074.58;106824;1273;22561;-89
2022/07/22 12:03:16;;;;;;;8.70;4.30;;;;;;;32.75;40.71;99071.50;106552;1273;25361;-89
2022/07/22 12:06:03;;;;;;;8.00;4.20;;;;;;;32.48;40.07;99071.98;106774;1273;22564;-92
2022/07/22 12:08:53;;;;;;;12.20;4.40;;;;;;;32.04;39.68;99071.17;106508;1273;25977;-90
2022/07/22 12:11:40;;;;;;;9.70;4.50;;;;;;;31.89;40.45;99070.74;106427;1274;24377;-89
2022/07/22 12:15:07;;;;;;;9.40;4.50;;;;;;;32.24;40.20;99065.18;106209;1273;22574;-90
2022/07/22 12:17:35;;;;;;;6.90;4.40;;;;;;;32.63;40.29;99060.05;106318;1274;25427;-89
2022/07/22 12:20:14;;;;;;;9.10;4.60;;;;;;;32.99;40.06;99054.29;106480;1274;23911;-89
2022/07/22 12:23:00;;;;;;;8.90;4.40;;;;;;;33.25;39.71;99052.84;106129;1273;24249;-89
2022/07/22 12:25:30;;;;;;;8.10;4.10;;;;;;;33.18;38.51;99047.66;106319;1273;22598;-88
2022/07/22 12:28:11;;;;;;;7.20;4.20;;;;;;;32.94;38.87;99046.30;106259;1273;22597;-90
2022/07/22 12:31:12;;;;;;;7.60;4.20;;;;;;;33.02;39.04;99041.77;106200;1273;25558;-90
2022/07/22 12:35:12;;;;;;;8.70;4.60;;;;;;;33.23;39.33;99036.48;106322;1273;24104;-89
2022/07/22 12:38:24;;;;;;;;;;;;;;;;;;;;;
2022/07/22 12:41:51;;;;;;;9.40;4.70;;;;;;;32.54;38.36;99036.80;105687;1281;22495;-89
2022/07/22 12:45:49;;;;;;;8.50;4.80;;;;;;;32.26;38.84;99036.68;106498;1279;22823;-90
2022/07/22 12:49:23;;;;;;;10.90;4.50;;;;;;;32.40;39.03;99040.29;106025;1279;24077;-88
2022/07/22 12:53:04;;;;;;;8.20;4.30;;;;;;;32.84;39.39;99036.26;105239;1287;22618;-88
2022/07/22 12:56:00;;;;;;;;;;;;;;;;;;;;;
2022/07/22 13:00:19;;;;;;;9.40;4.60;;;;;;;33.25;38.51;99031.80;106187;1290;22526;-90
2022/07/22 13:03:25;;;;;;;;;;;;;;;;;;;;;
2022/07/22 13:06:34;;;;;;;;;;;;;;;;;;;;;
2022/07/22 13:09:35;;;;;;;;;;;;;;;;;;;;;
2022/07/22 13:13:00;;;;;;;7.10;3.60;;;;;;;32.83;38.30;99036.14;104655;1291;24338;-88
2022/07/22 13:16:32;;;;;;;;;;;;;;;;;;;;;
2022/07/22 13:19:46;;;;;;;9.80;4.60;;;;;;;32.35;37.89;99034.52;100749;1294;25400;-89
2022/07/22 13:23:33;;;;;;;;;;;;;;;;;;;;;
2022/07/22 13:26:21;;;;;;;6.50;4.00;;;;;;;32.48;37.79;99031.52;104472;1294;25282;-93
2022/07/22 13:29:43;;;;;;;;;;;;;;;;;;;;;
2022/07/22 13:33:42;;;;;;;8.20;4.30;;;;;;;32.29;37.83;99030.20;106012;1284;22564;-89
2022/07/22 13:36:35;;;;;;;;;;;;;;;;;;;;;
2022/07/22 13:39:59;;;;;;;8.20;4.30;;;;;;;32.78;37.68;99029.08;105966;1284;22671;-90
2022/07/22 13:43:40;;;;;;;;;;;;;;;;;;;;;
2022/07/22 13:46:56;;;;;;;;;;;;;;;;;;;;;
2022/07/22 13:50:13;;;;;;;8.40;4.10;;;;;;;32.43;37.41;99022.98;105461;1287;25370;-91
2022/07/22 13:53:33;;;;;;;;;;;;;;;;;;;;;
2022/07/22 13:56:48;;;;;;;;;;;;;;;;;;;;;
2022/07/22 14:00:01;;;;;;;;;;;;;;;;;;;;;
2022/07/22 14:03:14;;;;;;;8.20;4.40;;;;;;;31.42;36.84;99019.71;105833;1280;23005;-89
2022/07/22 14:05:54;;;;;;;7.40;4.20;;;;;;;31.29;37.62;99017.09;105436;1283;25631;-92
2022/07/22 14:09:22;;;;;;;8.20;4.80;;;;;;;31.08;36.92;99017.96;105373;1280;22593;-89
2022/07/22 14:12:20;;;;;;;8.00;4.40;;;;;;;31.27;37.23;99022.27;106152;1277;24221;-91
2022/07/22 14:14:59;;;;;;;8.20;4.40;;;;;;;31.79;37.13;99016.33;106295;1273;25350;-89
2022/07/22 14:17:39;;;;;;;7.80;4.00;;;;;;;32.14;36.99;99014.28;106076;1273;25286;-87
2022/07/22 14:20:21;;;;;;;9.50;4.60;;;;;;;32.37;36.59;99012.95;106106;1273;22583;-89
2022/07/22 14:22:59;;;;;;;8.30;4.70;;;;;;;32.56;37.18;99009.30;106173;1274;24304;-90
2022/07/22 14:25:45;;;;;;;6.90;4.20;;;;;;;32.40;36.54;99011.50;106453;1274;22535;-90
2022/07/22 14:28:31;;;;;;;12.80;4.90;;;;;;;32.07;36.73;99012.56;106107;1274;23941;-90
2022/07/22 14:31:25;;;;;;;10.20;5.10;;;;;;;31.96;37.20;99011.33;106315;1274;22533;-89
2022/07/22 14:34:11;;;;;;;8.00;4.80;;;;;;;31.89;37.40;99010.16;106179;1274;22821;-92
2022/07/22 14:36:46;;;;;;;10.10;4.50;;;;;;;31.77;37.41;99014.14;106276;1274;22553;-91
2022/07/22 14:39:18;;;;;;;9.50;4.90;;;;;;;31.46;36.90;99010.69;106120;1274;25561;-89
2022/07/22 14:42:20;;;;;;;8.10;4.70;;;;;;;31.30;37.55;99010.53;106317;1274;22866;-93
2022/07/22 14:44:57;;;;;;;8.70;4.50;;;;;;;31.20;36.94;99014.63;106220;1274;22555;-91
2022/07/22 14:47:28;;;;;;;8.10;4.30;;;;;;;31.00;37.29;99014.86;106155;1274;22542;-88
2022/07/22 14:50:37;;;;;;;8.70;4.70;;;;;;;31.12;37.90;99013.23;106115;1274;22559;-90
2022/07/22 14:53:16;;;;;;;9.20;4.30;;;;;;;31.19;37.75;99011.46;106210;1274;25309;-90
2022/07/22 14:56:07;;;;;;;7.80;4.60;;;;;;;31.12;37.50;99007.77;106187;1274;25428;-89
2022/07/22 14:58:54;;;;;;;8.90;4.70;;;;;;;30.99;36.91;99009.00;106160;1274;22709;-89
2022/07/22 15:01:41;;;;;;;10.00;4.90;;;;;;;31.03;37.54;99006.20;106195;1271;24244;-91
2022/07/22 15:04:20;;;;;;;11.70;4.70;;;;;;;31.41;37.15;99004.11;106227;1271;22530;-89
2022/07/22 15:07:01;;;;;;;14.00;4.50;;;;;;;31.81;37.38;99002.65;106231;1272;22767;-91
2022/07/22 15:09:57;;;;;;;12.30;4.10;;;;;;;32.18;37.24;99001.84;106910;1271;22592;-92
2022/07/22 15:13:20;;;;;;;9.90;4.90;;;;;;;32.25;37.03;98997.98;106297;1271;25329;-89
2022/07/22 15:16:24;;;;;;;11.40;4.80;;;;;;;31.97;37.30;98997.38;106453;1271;25423;-89
2022/07/22 15:19:15;;;;;;;12.50;5.00;;;;;;;31.90;37.45;99000.34;107007;1274;25357;-92
2022/07/22 15:22:11;;;;;;;11.40;4.70;;;;;;;31.81;37.56;98993.56;107224;1271;24080;-92
2022/07/22 15:24:57;;;;;;;8.20;4.60;;;;;;;32.01;37.73;98989.65;106316;1273;22562;-89
2022/07/22 15:27:41;;;;;;;16.40;4.80;;;;;;;32.41;37.61;98989.67;106307;1273;25351;-90
2022/07/22 15:30:33;;;;;;;14.70;5.10;;;;;;;32.80;37.43;98991.73;106563;1273;26548;-91
2022/07/22 15:33:14;;;;;;;8.80;4.60;;;;;;;33.20;37.06;98986.31;106090;1274;24390;-91
2022/07/22 15:35:57;;;;;;;8.40;4.40;;;;;;;33.38;36.37;98985.23;106430;1273;22620;-90
2022/07/22 15:38:40;;;;;;;8.70;4.40;;;;;;;33.52;36.88;98980.64;106646;1273;24211;-91
2022/07/22 15:41:21;;;;;;;10.10;4.40;;;;;;;33.92;37.00;98982.70;106356;1274;22545;-90
2022/07/22 15:44:08;;;;;;;8.60;4.70;;;;;;;34.30;36.47;98974.46;106260;1273;22711;-90
2022/07/22 15:47:20;;;;;;;12.90;4.80;;;;;;;34.53;36.12;98977.90;106479;1273;25160;-90
2022/07/22 15:50:07;;;;;;;14.10;5.10;;;;;;;34.85;36.57;98971.29;106218;1273;25961;-91